sensor_id;sensor_type;location;lat;lon;timestamp;P1;durP1;ratioP1;P2;durP2;ratioP2
7557;SDS011;3820;51.098;13.716;2023-04-15T00:00:57;7.23;;;6.00;;
7557;SDS011;3820;51.098;13.716;2023-04-15T00:03:25;6.73;;;5.83;;
7557;SDS011;3820;51.098;13.716;2023-04-15T00:05:53;7.07;;;6.33;;
7557;SDS011;3820;51.098;13.716;2023-04-15T00:08:19;8.50;;;6.80;;
7557;SDS011;3820;51.098;13.716;2023-04-15T00:10:46;7.73;;;6.63;;
7557;SDS011;3820;51.098;13.716;2023-04-15T00:13:13;8.67;;;7.27;;
7557;SDS011;3820;51.098;13.716;2023-04-15T00:15:40;11.13;;;7.67;;
7557;SDS011;3820;51.098;13.716;2023-04-15T00:18:08;9.43;;;7.30;;
7557;SDS011;3820;51.098;13.716;2023-04-15T00:20:34;9.17;;;7.80;;
7557;SDS011;3820;51.098;13.716;2023-04-15T00:23:02;7.80;;;7.00;;
7557;SDS011;3820;51.098;13.716;2023-04-15T00:25:29;9.67;;;7.30;;
7557;SDS011;3820;51.098;13.716;2023-04-15T00:27:56;8.37;;;6.97;;
7557;SDS011;3820;51.098;13.716;2023-04-15T00:30:23;8.70;;;6.87;;
7557;SDS011;3820;51.098;13.716;2023-04-15T00:32:49;8.43;;;6.20;;
7557;SDS011;3820;51.098;13.716;2023-04-15T00:35:16;8.77;;;6.40;;
7557;SDS011;3820;51.098;13.716;2023-04-15T00:37:43;7.37;;;6.17;;
7557;SDS011;3820;51.098;13.716;2023-04-15T00:40:11;7.00;;;6.13;;
7557;SDS011;3820;51.098;13.716;2023-04-15T00:42:39;7.50;;;6.40;;
7557;SDS011;3820;51.098;13.716;2023-04-15T00:45:06;7.37;;;6.27;;
7557;SDS011;3820;51.098;13.716;2023-04-15T00:47:35;6.70;;;5.80;;
7557;SDS011;3820;51.098;13.716;2023-04-15T00:50:02;7.17;;;6.27;;
7557;SDS011;3820;51.098;13.716;2023-04-15T00:52:30;8.23;;;6.13;;
7557;SDS011;3820;51.098;13.716;2023-04-15T00:54:57;7.60;;;6.10;;
7557;SDS011;3820;51.098;13.716;2023-04-15T00:57:24;7.80;;;6.13;;
7557;SDS011;3820;51.098;13.716;2023-04-15T00:59:51;6.57;;;5.63;;
7557;SDS011;3820;51.098;13.716;2023-04-15T01:02:18;7.03;;;6.00;;
7557;SDS011;3820;51.098;13.716;2023-04-15T01:04:45;6.13;;;5.53;;
7557;SDS011;3820;51.098;13.716;2023-04-15T01:07:12;6.50;;;5.80;;
7557;SDS011;3820;51.098;13.716;2023-04-15T01:09:39;6.70;;;5.80;;
7557;SDS011;3820;51.098;13.716;2023-04-15T01:12:06;7.77;;;5.30;;
7557;SDS011;3820;51.098;13.716;2023-04-15T01:14:34;7.07;;;5.87;;
7557;SDS011;3820;51.098;13.716;2023-04-15T01:17:01;7.67;;;6.17;;
7557;SDS011;3820;51.098;13.716;2023-04-15T01:19:27;9.03;;;6.07;;
7557;SDS011;3820;51.098;13.716;2023-04-15T01:21:54;6.53;;;5.83;;
7557;SDS011;3820;51.098;13.716;2023-04-15T01:24:21;7.10;;;6.27;;
7557;SDS011;3820;51.098;13.716;2023-04-15T01:26:49;7.57;;;6.50;;
7557;SDS011;3820;51.098;13.716;2023-04-15T01:29:15;7.60;;;6.70;;
7557;SDS011;3820;51.098;13.716;2023-04-15T01:31:53;7.47;;;6.53;;
7557;SDS011;3820;51.098;13.716;2023-04-15T01:34:21;8.20;;;6.87;;
7557;SDS011;3820;51.098;13.716;2023-04-15T01:36:48;8.73;;;6.43;;
7557;SDS011;3820;51.098;13.716;2023-04-15T01:39:15;7.77;;;6.57;;
7557;SDS011;3820;51.098;13.716;2023-04-15T01:41:42;9.50;;;7.33;;
7557;SDS011;3820;51.098;13.716;2023-04-15T01:44:08;8.30;;;6.77;;
7557;SDS011;3820;51.098;13.716;2023-04-15T01:46:35;8.03;;;6.67;;
7557;SDS011;3820;51.098;13.716;2023-04-15T01:49:02;8.33;;;6.77;;
7557;SDS011;3820;51.098;13.716;2023-04-15T01:51:29;7.13;;;6.33;;
7557;SDS011;3820;51.098;13.716;2023-04-15T01:53:55;7.97;;;6.77;;
7557;SDS011;3820;51.098;13.716;2023-04-15T01:56:22;7.35;;;6.50;;
7557;SDS011;3820;51.098;13.716;2023-04-15T01:58:49;7.43;;;6.43;;
7557;SDS011;3820;51.098;13.716;2023-04-15T02:01:17;7.13;;;5.90;;
7557;SDS011;3820;51.098;13.716;2023-04-15T02:03:45;7.93;;;6.50;;
7557;SDS011;3820;51.098;13.716;2023-04-15T02:06:13;8.37;;;6.00;;
7557;SDS011;3820;51.098;13.716;2023-04-15T02:08:39;8.10;;;6.07;;
7557;SDS011;3820;51.098;13.716;2023-04-15T02:11:06;7.73;;;6.67;;
7557;SDS011;3820;51.098;13.716;2023-04-15T02:13:33;7.47;;;5.90;;
7557;SDS011;3820;51.098;13.716;2023-04-15T02:16:00;8.00;;;6.20;;
7557;SDS011;3820;51.098;13.716;2023-04-15T02:18:27;6.67;;;5.97;;
7557;SDS011;3820;51.098;13.716;2023-04-15T02:20:54;9.03;;;6.40;;
7557;SDS011;3820;51.098;13.716;2023-04-15T02:23:24;6.83;;;5.90;;
7557;SDS011;3820;51.098;13.716;2023-04-15T02:25:51;7.63;;;6.00;;
7557;SDS011;3820;51.098;13.716;2023-04-15T02:28:20;7.27;;;6.17;;
7557;SDS011;3820;51.098;13.716;2023-04-15T02:30:48;6.60;;;5.80;;
7557;SDS011;3820;51.098;13.716;2023-04-15T02:33:18;7.00;;;5.80;;
7557;SDS011;3820;51.098;13.716;2023-04-15T02:35:46;7.00;;;5.87;;
7557;SDS011;3820;51.098;13.716;2023-04-15T02:38:12;6.90;;;6.20;;
7557;SDS011;3820;51.098;13.716;2023-04-15T02:40:39;8.43;;;6.00;;
7557;SDS011;3820;51.098;13.716;2023-04-15T02:43:06;7.73;;;6.17;;
7557;SDS011;3820;51.098;13.716;2023-04-15T02:45:33;7.00;;;6.30;;
7557;SDS011;3820;51.098;13.716;2023-04-15T02:48:00;8.07;;;6.47;;
7557;SDS011;3820;51.098;13.716;2023-04-15T02:50:31;7.13;;;6.17;;
7557;SDS011;3820;51.098;13.716;2023-04-15T02:52:58;9.33;;;6.63;;
7557;SDS011;3820;51.098;13.716;2023-04-15T02:55:26;6.77;;;6.07;;
7557;SDS011;3820;51.098;13.716;2023-04-15T02:57:53;6.57;;;5.70;;
7557;SDS011;3820;51.098;13.716;2023-04-15T03:00:19;7.13;;;5.80;;
7557;SDS011;3820;51.098;13.716;2023-04-15T03:02:46;7.63;;;5.83;;
7557;SDS011;3820;51.098;13.716;2023-04-15T03:05:13;8.47;;;6.00;;
7557;SDS011;3820;51.098;13.716;2023-04-15T03:07:40;8.20;;;6.03;;
7557;SDS011;3820;51.098;13.716;2023-04-15T03:10:06;7.50;;;6.03;;
7557;SDS011;3820;51.098;13.716;2023-04-15T03:12:33;7.90;;;6.20;;
7557;SDS011;3820;51.098;13.716;2023-04-15T03:15:00;7.10;;;5.80;;
7557;SDS011;3820;51.098;13.716;2023-04-15T03:17:27;8.73;;;6.53;;
7557;SDS011;3820;51.098;13.716;2023-04-15T03:19:54;7.53;;;6.17;;
7557;SDS011;3820;51.098;13.716;2023-04-15T03:22:20;8.47;;;6.43;;
7557;SDS011;3820;51.098;13.716;2023-04-15T03:24:47;8.70;;;6.63;;
7557;SDS011;3820;51.098;13.716;2023-04-15T03:27:13;9.10;;;6.53;;
7557;SDS011;3820;51.098;13.716;2023-04-15T03:29:40;7.87;;;6.63;;
7557;SDS011;3820;51.098;13.716;2023-04-15T03:32:07;8.50;;;6.80;;
7557;SDS011;3820;51.098;13.716;2023-04-15T03:34:33;8.20;;;6.67;;
7557;SDS011;3820;51.098;13.716;2023-04-15T03:37:00;7.67;;;6.40;;
7557;SDS011;3820;51.098;13.716;2023-04-15T03:39:27;8.10;;;6.73;;
7557;SDS011;3820;51.098;13.716;2023-04-15T03:41:53;8.40;;;6.83;;
7557;SDS011;3820;51.098;13.716;2023-04-15T03:44:19;8.13;;;6.70;;
7557;SDS011;3820;51.098;13.716;2023-04-15T03:46:46;8.17;;;6.93;;
7557;SDS011;3820;51.098;13.716;2023-04-15T03:49:13;8.27;;;6.67;;
7557;SDS011;3820;51.098;13.716;2023-04-15T03:51:40;8.23;;;7.03;;
7557;SDS011;3820;51.098;13.716;2023-04-15T03:54:06;11.40;;;7.70;;
7557;SDS011;3820;51.098;13.716;2023-04-15T03:56:33;10.90;;;7.37;;
7557;SDS011;3820;51.098;13.716;2023-04-15T03:59:00;7.50;;;6.53;;
7557;SDS011;3820;51.098;13.716;2023-04-15T04:01:27;9.40;;;7.27;;
7557;SDS011;3820;51.098;13.716;2023-04-15T04:03:53;10.67;;;7.90;;
7557;SDS011;3820;51.098;13.716;2023-04-15T04:06:20;10.03;;;7.60;;
7557;SDS011;3820;51.098;13.716;2023-04-15T04:08:47;10.70;;;8.37;;
7557;SDS011;3820;51.098;13.716;2023-04-15T04:11:13;10.27;;;8.03;;
7557;SDS011;3820;51.098;13.716;2023-04-15T04:13:40;10.67;;;8.23;;
7557;SDS011;3820;51.098;13.716;2023-04-15T04:16:06;11.33;;;8.43;;
7557;SDS011;3820;51.098;13.716;2023-04-15T04:18:33;11.33;;;8.43;;
7557;SDS011;3820;51.098;13.716;2023-04-15T04:21:00;11.60;;;9.17;;
7557;SDS011;3820;51.098;13.716;2023-04-15T04:23:27;14.37;;;9.00;;
7557;SDS011;3820;51.098;13.716;2023-04-15T04:25:53;12.47;;;8.40;;
7557;SDS011;3820;51.098;13.716;2023-04-15T04:28:20;11.57;;;8.60;;
7557;SDS011;3820;51.098;13.716;2023-04-15T04:30:46;12.03;;;9.23;;
7557;SDS011;3820;51.098;13.716;2023-04-15T04:33:13;11.53;;;8.87;;
7557;SDS011;3820;51.098;13.716;2023-04-15T04:35:40;11.87;;;8.93;;
7557;SDS011;3820;51.098;13.716;2023-04-15T04:38:06;14.40;;;9.17;;
7557;SDS011;3820;51.098;13.716;2023-04-15T04:40:33;15.30;;;9.70;;
7557;SDS011;3820;51.098;13.716;2023-04-15T04:42:59;13.53;;;9.00;;
7557;SDS011;3820;51.098;13.716;2023-04-15T04:45:26;12.10;;;8.93;;
7557;SDS011;3820;51.098;13.716;2023-04-15T04:47:53;14.40;;;9.80;;
7557;SDS011;3820;51.098;13.716;2023-04-15T04:50:19;13.27;;;9.60;;
7557;SDS011;3820;51.098;13.716;2023-04-15T04:52:46;12.43;;;9.10;;
7557;SDS011;3820;51.098;13.716;2023-04-15T04:55:12;12.13;;;9.50;;
7557;SDS011;3820;51.098;13.716;2023-04-15T04:57:39;13.53;;;10.07;;
7557;SDS011;3820;51.098;13.716;2023-04-15T05:00:06;12.27;;;9.33;;
7557;SDS011;3820;51.098;13.716;2023-04-15T05:02:34;12.03;;;9.30;;
7557;SDS011;3820;51.098;13.716;2023-04-15T05:05:01;13.17;;;9.60;;
7557;SDS011;3820;51.098;13.716;2023-04-15T05:07:28;10.90;;;8.97;;
7557;SDS011;3820;51.098;13.716;2023-04-15T05:09:54;13.30;;;9.20;;
7557;SDS011;3820;51.098;13.716;2023-04-15T05:12:21;12.93;;;9.27;;
7557;SDS011;3820;51.098;13.716;2023-04-15T05:14:48;11.90;;;9.57;;
7557;SDS011;3820;51.098;13.716;2023-04-15T05:17:14;11.70;;;8.63;;
7557;SDS011;3820;51.098;13.716;2023-04-15T05:19:41;11.83;;;8.97;;
7557;SDS011;3820;51.098;13.716;2023-04-15T05:22:07;14.70;;;10.10;;
7557;SDS011;3820;51.098;13.716;2023-04-15T05:24:34;15.07;;;10.63;;
7557;SDS011;3820;51.098;13.716;2023-04-15T05:27:01;15.07;;;10.87;;
7557;SDS011;3820;51.098;13.716;2023-04-15T05:29:28;21.73;;;12.30;;
7557;SDS011;3820;51.098;13.716;2023-04-15T05:31:55;16.60;;;12.10;;
7557;SDS011;3820;51.098;13.716;2023-04-15T05:34:21;18.03;;;12.33;;
7557;SDS011;3820;51.098;13.716;2023-04-15T05:36:48;20.60;;;13.40;;
7557;SDS011;3820;51.098;13.716;2023-04-15T05:39:15;19.40;;;13.03;;
7557;SDS011;3820;51.098;13.716;2023-04-15T05:41:41;24.70;;;14.83;;
7557;SDS011;3820;51.098;13.716;2023-04-15T05:44:08;27.73;;;14.80;;
7557;SDS011;3820;51.098;13.716;2023-04-15T05:46:34;27.13;;;15.97;;
7557;SDS011;3820;51.098;13.716;2023-04-15T05:49:01;29.30;;;17.77;;
7557;SDS011;3820;51.098;13.716;2023-04-15T05:51:28;30.07;;;18.43;;
7557;SDS011;3820;51.098;13.716;2023-04-15T05:53:55;32.37;;;19.53;;
7557;SDS011;3820;51.098;13.716;2023-04-15T05:56:22;32.20;;;17.90;;
7557;SDS011;3820;51.098;13.716;2023-04-15T05:58:49;28.50;;;17.20;;
7557;SDS011;3820;51.098;13.716;2023-04-15T06:01:19;29.77;;;17.70;;
7557;SDS011;3820;51.098;13.716;2023-04-15T06:03:46;33.83;;;18.27;;
7557;SDS011;3820;51.098;13.716;2023-04-15T06:06:12;31.37;;;17.10;;
7557;SDS011;3820;51.098;13.716;2023-04-15T06:08:40;28.93;;;17.10;;
7557;SDS011;3820;51.098;13.716;2023-04-15T06:11:07;27.83;;;16.37;;
7557;SDS011;3820;51.098;13.716;2023-04-15T06:13:34;23.33;;;14.70;;
7557;SDS011;3820;51.098;13.716;2023-04-15T06:16:02;20.20;;;13.40;;
7557;SDS011;3820;51.098;13.716;2023-04-15T06:18:29;20.03;;;13.47;;
7557;SDS011;3820;51.098;13.716;2023-04-15T06:20:56;18.67;;;12.97;;
7557;SDS011;3820;51.098;13.716;2023-04-15T06:23:22;21.13;;;12.87;;
7557;SDS011;3820;51.098;13.716;2023-04-15T06:25:51;21.07;;;18.30;;
7557;SDS011;3820;51.098;13.716;2023-04-15T06:28:18;20.83;;;17.10;;
7557;SDS011;3820;51.098;13.716;2023-04-15T06:30:45;14.43;;;10.23;;
7557;SDS011;3820;51.098;13.716;2023-04-15T06:33:12;11.63;;;8.07;;
7557;SDS011;3820;51.098;13.716;2023-04-15T06:35:39;13.47;;;9.87;;
7557;SDS011;3820;51.098;13.716;2023-04-15T06:38:05;11.00;;;8.37;;
7557;SDS011;3820;51.098;13.716;2023-04-15T06:40:32;16.73;;;14.97;;
7557;SDS011;3820;51.098;13.716;2023-04-15T06:42:58;11.60;;;8.63;;
7557;SDS011;3820;51.098;13.716;2023-04-15T06:45:25;9.17;;;7.20;;
7557;SDS011;3820;51.098;13.716;2023-04-15T06:47:52;57.37;;;49.60;;
7557;SDS011;3820;51.098;13.716;2023-04-15T06:50:19;9.50;;;7.63;;
7557;SDS011;3820;51.098;13.716;2023-04-15T06:52:45;10.00;;;8.80;;
7557;SDS011;3820;51.098;13.716;2023-04-15T06:55:12;25.47;;;22.87;;
7557;SDS011;3820;51.098;13.716;2023-04-15T06:57:40;6.90;;;6.20;;
7557;SDS011;3820;51.098;13.716;2023-04-15T07:00:06;4.80;;;4.37;;
7557;SDS011;3820;51.098;13.716;2023-04-15T07:02:34;5.67;;;5.00;;
7557;SDS011;3820;51.098;13.716;2023-04-15T07:05:00;6.27;;;4.27;;
7557;SDS011;3820;51.098;13.716;2023-04-15T07:07:27;7.67;;;6.97;;
7557;SDS011;3820;51.098;13.716;2023-04-15T07:09:54;4.73;;;4.23;;
7557;SDS011;3820;51.098;13.716;2023-04-15T07:12:20;3.60;;;3.10;;
7557;SDS011;3820;51.098;13.716;2023-04-15T07:14:47;3.77;;;3.13;;
7557;SDS011;3820;51.098;13.716;2023-04-15T07:17:14;4.93;;;3.20;;
7557;SDS011;3820;51.098;13.716;2023-04-15T07:19:41;3.40;;;2.67;;
7557;SDS011;3820;51.098;13.716;2023-04-15T07:22:08;2.90;;;2.60;;
7557;SDS011;3820;51.098;13.716;2023-04-15T07:24:34;2.60;;;2.20;;
7557;SDS011;3820;51.098;13.716;2023-04-15T07:27:01;2.80;;;2.23;;
7557;SDS011;3820;51.098;13.716;2023-04-15T07:29:29;3.00;;;2.70;;
7557;SDS011;3820;51.098;13.716;2023-04-15T07:31:55;2.50;;;2.20;;
7557;SDS011;3820;51.098;13.716;2023-04-15T07:34:22;4.33;;;2.20;;
7557;SDS011;3820;51.098;13.716;2023-04-15T07:36:49;2.50;;;2.30;;
7557;SDS011;3820;51.098;13.716;2023-04-15T07:39:17;3.30;;;3.07;;
7557;SDS011;3820;51.098;13.716;2023-04-15T07:41:44;2.40;;;2.20;;
7557;SDS011;3820;51.098;13.716;2023-04-15T07:44:11;4.73;;;2.40;;
7557;SDS011;3820;51.098;13.716;2023-04-15T07:46:38;3.30;;;3.00;;
7557;SDS011;3820;51.098;13.716;2023-04-15T07:49:05;2.50;;;2.30;;
7557;SDS011;3820;51.098;13.716;2023-04-15T07:51:32;2.10;;;1.90;;
7557;SDS011;3820;51.098;13.716;2023-04-15T07:53:59;1.87;;;1.77;;
7557;SDS011;3820;51.098;13.716;2023-04-15T07:56:25;3.00;;;2.33;;
7557;SDS011;3820;51.098;13.716;2023-04-15T07:58:52;2.83;;;2.57;;
7557;SDS011;3820;51.098;13.716;2023-04-15T08:01:19;2.07;;;1.87;;
7557;SDS011;3820;51.098;13.716;2023-04-15T08:03:46;2.57;;;2.37;;
7557;SDS011;3820;51.098;13.716;2023-04-15T08:06:14;2.83;;;2.47;;
7557;SDS011;3820;51.098;13.716;2023-04-15T08:08:40;3.17;;;2.87;;
7557;SDS011;3820;51.098;13.716;2023-04-15T08:11:08;3.63;;;3.10;;
7557;SDS011;3820;51.098;13.716;2023-04-15T08:13:35;3.70;;;2.50;;
7557;SDS011;3820;51.098;13.716;2023-04-15T08:16:12;3.30;;;2.97;;
7557;SDS011;3820;51.098;13.716;2023-04-15T08:18:42;2.57;;;2.13;;
7557;SDS011;3820;51.098;13.716;2023-04-15T08:21:08;5.83;;;5.30;;
7557;SDS011;3820;51.098;13.716;2023-04-15T08:23:35;21.40;;;19.70;;
7557;SDS011;3820;51.098;13.716;2023-04-15T08:26:02;23.60;;;21.43;;
7557;SDS011;3820;51.098;13.716;2023-04-15T08:28:29;10.57;;;9.67;;
7557;SDS011;3820;51.098;13.716;2023-04-15T08:30:55;2.37;;;2.17;;
7557;SDS011;3820;51.098;13.716;2023-04-15T08:33:22;4.33;;;3.93;;
7557;SDS011;3820;51.098;13.716;2023-04-15T08:35:49;12.93;;;11.83;;
7557;SDS011;3820;51.098;13.716;2023-04-15T08:38:15;14.20;;;13.00;;
7557;SDS011;3820;51.098;13.716;2023-04-15T08:40:43;4.93;;;3.20;;
7557;SDS011;3820;51.098;13.716;2023-04-15T08:43:21;4.77;;;4.33;;
7557;SDS011;3820;51.098;13.716;2023-04-15T08:45:51;2.10;;;1.90;;
7557;SDS011;3820;51.098;13.716;2023-04-15T08:48:18;5.03;;;4.30;;
7557;SDS011;3820;51.098;13.716;2023-04-15T08:50:46;3.20;;;2.90;;
7557;SDS011;3820;51.098;13.716;2023-04-15T08:53:13;2.60;;;2.40;;
7557;SDS011;3820;51.098;13.716;2023-04-15T08:55:45;3.23;;;2.93;;
7557;SDS011;3820;51.098;13.716;2023-04-15T08:58:12;2.43;;;2.03;;
7557;SDS011;3820;51.098;13.716;2023-04-15T09:00:40;2.00;;;1.80;;
7557;SDS011;3820;51.098;13.716;2023-04-15T09:03:07;2.07;;;1.70;;
7557;SDS011;3820;51.098;13.716;2023-04-15T09:05:35;2.77;;;1.80;;
7557;SDS011;3820;51.098;13.716;2023-04-15T09:08:03;1.70;;;1.60;;
7557;SDS011;3820;51.098;13.716;2023-04-15T09:10:31;2.20;;;2.00;;
7557;SDS011;3820;51.098;13.716;2023-04-15T09:12:58;2.33;;;2.13;;
7557;SDS011;3820;51.098;13.716;2023-04-15T09:15:25;2.53;;;2.33;;
7557;SDS011;3820;51.098;13.716;2023-04-15T09:17:52;3.17;;;2.33;;
7557;SDS011;3820;51.098;13.716;2023-04-15T09:20:19;4.13;;;3.73;;
7557;SDS011;3820;51.098;13.716;2023-04-15T09:22:47;6.87;;;5.17;;
7557;SDS011;3820;51.098;13.716;2023-04-15T09:28:15;7.30;;;6.60;;
7557;SDS011;3820;51.098;13.716;2023-04-15T09:30:34;7.80;;;7.00;;
7557;SDS011;3820;51.098;13.716;2023-04-15T09:33:01;8.07;;;7.27;;
7557;SDS011;3820;51.098;13.716;2023-04-15T09:35:30;8.67;;;7.70;;
7557;SDS011;3820;51.098;13.716;2023-04-15T09:38:03;8.00;;;7.20;;
7557;SDS011;3820;51.098;13.716;2023-04-15T09:40:36;7.93;;;7.13;;
7557;SDS011;3820;51.098;13.716;2023-04-15T09:43:04;8.07;;;6.70;;
7557;SDS011;3820;51.098;13.716;2023-04-15T09:45:32;8.90;;;8.00;;
7557;SDS011;3820;51.098;13.716;2023-04-15T09:48:13;9.13;;;7.50;;
7557;SDS011;3820;51.098;13.716;2023-04-15T09:50:44;8.33;;;7.53;;
7557;SDS011;3820;51.098;13.716;2023-04-15T09:53:11;7.80;;;6.97;;
7557;SDS011;3820;51.098;13.716;2023-04-15T09:55:46;8.40;;;7.60;;
7557;SDS011;3820;51.098;13.716;2023-04-15T09:58:19;7.60;;;6.80;;
7557;SDS011;3820;51.098;13.716;2023-04-15T10:00:47;7.77;;;7.07;;
7557;SDS011;3820;51.098;13.716;2023-04-15T10:03:22;8.23;;;7.43;;
7557;SDS011;3820;51.098;13.716;2023-04-15T10:05:51;8.00;;;7.17;;
7557;SDS011;3820;51.098;13.716;2023-04-15T10:08:20;8.13;;;7.07;;
7557;SDS011;3820;51.098;13.716;2023-04-15T10:10:48;8.00;;;7.20;;
7557;SDS011;3820;51.098;13.716;2023-04-15T10:13:18;7.90;;;6.90;;
7557;SDS011;3820;51.098;13.716;2023-04-15T10:15:49;7.10;;;6.40;;
7557;SDS011;3820;51.098;13.716;2023-04-15T10:18:18;8.63;;;6.73;;
7557;SDS011;3820;51.098;13.716;2023-04-15T10:20:47;7.13;;;6.43;;
7557;SDS011;3820;51.098;13.716;2023-04-15T10:23:14;7.13;;;6.43;;
7557;SDS011;3820;51.098;13.716;2023-04-15T10:25:41;7.10;;;6.40;;
7557;SDS011;3820;51.098;13.716;2023-04-15T10:28:07;7.50;;;6.70;;
7557;SDS011;3820;51.098;13.716;2023-04-15T10:30:34;8.23;;;6.73;;
7557;SDS011;3820;51.098;13.716;2023-04-15T10:33:02;6.80;;;6.07;;
7557;SDS011;3820;51.098;13.716;2023-04-15T10:35:29;8.13;;;6.23;;
7557;SDS011;3820;51.098;13.716;2023-04-15T10:37:57;7.13;;;6.43;;
7557;SDS011;3820;51.098;13.716;2023-04-15T10:40:25;7.33;;;6.63;;
7557;SDS011;3820;51.098;13.716;2023-04-15T10:42:57;7.23;;;6.37;;
7557;SDS011;3820;51.098;13.716;2023-04-15T10:45:31;7.87;;;7.07;;
7557;SDS011;3820;51.098;13.716;2023-04-15T10:48:00;7.10;;;6.40;;
7557;SDS011;3820;51.098;13.716;2023-04-15T10:50:32;12.47;;;8.27;;
7557;SDS011;3820;51.098;13.716;2023-04-15T10:53:01;9.93;;;8.03;;
7557;SDS011;3820;51.098;13.716;2023-04-15T10:55:32;9.30;;;7.77;;
7557;SDS011;3820;51.098;13.716;2023-04-15T10:58:00;8.73;;;7.83;;
7557;SDS011;3820;51.098;13.716;2023-04-15T11:00:30;9.27;;;7.20;;
7557;SDS011;3820;51.098;13.716;2023-04-15T11:02:58;7.90;;;7.10;;
7557;SDS011;3820;51.098;13.716;2023-04-15T11:08:15;8.90;;;7.60;;
7557;SDS011;3820;51.098;13.716;2023-04-15T11:15:39;8.27;;;7.33;;
7557;SDS011;3820;51.098;13.716;2023-04-15T11:18:11;8.17;;;6.73;;
7557;SDS011;3820;51.098;13.716;2023-04-15T11:20:38;6.87;;;5.90;;
7557;SDS011;3820;51.098;13.716;2023-04-15T11:23:06;7.40;;;5.87;;
7557;SDS011;3820;51.098;13.716;2023-04-15T11:25:40;6.50;;;5.67;;
7557;SDS011;3820;51.098;13.716;2023-04-15T11:28:09;7.47;;;6.67;;
7557;SDS011;3820;51.098;13.716;2023-04-15T11:30:37;7.07;;;6.27;;
7557;SDS011;3820;51.098;13.716;2023-04-15T11:33:05;6.47;;;5.00;;
7557;SDS011;3820;51.098;13.716;2023-04-15T11:35:37;5.40;;;4.87;;
7557;SDS011;3820;51.098;13.716;2023-04-15T11:38:09;5.10;;;4.27;;
7557;SDS011;3820;51.098;13.716;2023-04-15T11:40:38;5.20;;;4.70;;
7557;SDS011;3820;51.098;13.716;2023-04-15T11:43:06;4.37;;;3.97;;
7557;SDS011;3820;51.098;13.716;2023-04-15T11:45:44;4.50;;;4.10;;
7557;SDS011;3820;51.098;13.716;2023-04-15T11:48:13;7.30;;;4.60;;
7557;SDS011;3820;51.098;13.716;2023-04-15T11:50:40;6.43;;;4.10;;
7557;SDS011;3820;51.098;13.716;2023-04-15T11:53:08;5.43;;;3.90;;
7557;SDS011;3820;51.098;13.716;2023-04-15T11:55:43;4.00;;;3.60;;
7557;SDS011;3820;51.098;13.716;2023-04-15T12:00:51;5.60;;;4.00;;
7557;SDS011;3820;51.098;13.716;2023-04-15T12:10:32;6.13;;;4.30;;
7557;SDS011;3820;51.098;13.716;2023-04-15T12:12:58;7.70;;;5.17;;
7557;SDS011;3820;51.098;13.716;2023-04-15T12:15:25;4.50;;;3.40;;
7557;SDS011;3820;51.098;13.716;2023-04-15T12:17:53;3.10;;;2.80;;
7557;SDS011;3820;51.098;13.716;2023-04-15T12:20:23;6.97;;;3.53;;
7557;SDS011;3820;51.098;13.716;2023-04-15T12:22:50;3.87;;;3.47;;
7557;SDS011;3820;51.098;13.716;2023-04-15T12:25:17;5.00;;;3.67;;
7557;SDS011;3820;51.098;13.716;2023-04-15T12:27:49;4.23;;;3.13;;
7557;SDS011;3820;51.098;13.716;2023-04-15T12:30:17;3.27;;;2.97;;
7557;SDS011;3820;51.098;13.716;2023-04-15T12:32:43;4.63;;;3.23;;
7557;SDS011;3820;51.098;13.716;2023-04-15T12:35:11;3.87;;;3.30;;
7557;SDS011;3820;51.098;13.716;2023-04-15T12:37:37;2.63;;;2.30;;
7557;SDS011;3820;51.098;13.716;2023-04-15T12:40:04;3.30;;;3.00;;
7557;SDS011;3820;51.098;13.716;2023-04-15T12:42:34;3.17;;;2.87;;
7557;SDS011;3820;51.098;13.716;2023-04-15T12:45:00;3.10;;;2.80;;
7557;SDS011;3820;51.098;13.716;2023-04-15T12:47:27;4.30;;;2.70;;
7557;SDS011;3820;51.098;13.716;2023-04-15T12:49:54;3.80;;;2.80;;
7557;SDS011;3820;51.098;13.716;2023-04-15T12:52:20;3.50;;;2.40;;
7557;SDS011;3820;51.098;13.716;2023-04-15T12:54:47;7.03;;;2.70;;
7557;SDS011;3820;51.098;13.716;2023-04-15T12:57:14;3.30;;;2.80;;
7557;SDS011;3820;51.098;13.716;2023-04-15T12:59:40;2.97;;;2.70;;
7557;SDS011;3820;51.098;13.716;2023-04-15T13:02:07;3.53;;;2.80;;
7557;SDS011;3820;51.098;13.716;2023-04-15T13:04:34;4.00;;;2.33;;
7557;SDS011;3820;51.098;13.716;2023-04-15T13:07:00;2.77;;;2.53;;
7557;SDS011;3820;51.098;13.716;2023-04-15T13:09:27;3.67;;;2.67;;
7557;SDS011;3820;51.098;13.716;2023-04-15T13:11:54;2.53;;;2.33;;
7557;SDS011;3820;51.098;13.716;2023-04-15T13:14:21;3.87;;;2.50;;
7557;SDS011;3820;51.098;13.716;2023-04-15T13:16:48;3.17;;;2.13;;
7557;SDS011;3820;51.098;13.716;2023-04-15T13:19:14;4.23;;;2.97;;
7557;SDS011;3820;51.098;13.716;2023-04-15T13:21:41;3.30;;;3.00;;
7557;SDS011;3820;51.098;13.716;2023-04-15T13:24:08;3.10;;;2.77;;
7557;SDS011;3820;51.098;13.716;2023-04-15T13:26:35;3.73;;;2.60;;
7557;SDS011;3820;51.098;13.716;2023-04-15T13:29:03;3.53;;;2.40;;
7557;SDS011;3820;51.098;13.716;2023-04-15T13:31:30;3.90;;;2.90;;
7557;SDS011;3820;51.098;13.716;2023-04-15T13:33:56;3.47;;;2.90;;
7557;SDS011;3820;51.098;13.716;2023-04-15T13:36:23;2.70;;;2.40;;
7557;SDS011;3820;51.098;13.716;2023-04-15T13:38:50;2.97;;;2.40;;
7557;SDS011;3820;51.098;13.716;2023-04-15T13:41:17;3.00;;;2.70;;
7557;SDS011;3820;51.098;13.716;2023-04-15T13:43:44;8.60;;;2.87;;
7557;SDS011;3820;51.098;13.716;2023-04-15T13:46:10;3.07;;;2.70;;
7557;SDS011;3820;51.098;13.716;2023-04-15T13:48:37;3.07;;;2.67;;
7557;SDS011;3820;51.098;13.716;2023-04-15T13:51:04;3.23;;;2.63;;
7557;SDS011;3820;51.098;13.716;2023-04-15T13:53:30;4.23;;;2.90;;
7557;SDS011;3820;51.098;13.716;2023-04-15T13:56:07;3.37;;;2.90;;
7557;SDS011;3820;51.098;13.716;2023-04-15T13:58:35;5.27;;;3.50;;
7557;SDS011;3820;51.098;13.716;2023-04-15T14:01:02;4.82;;;3.22;;
7557;SDS011;3820;51.098;13.716;2023-04-15T14:03:31;3.88;;;3.13;;
7557;SDS011;3820;51.098;13.716;2023-04-15T14:05:58;4.13;;;3.27;;
7557;SDS011;3820;51.098;13.716;2023-04-15T14:08:25;5.13;;;3.55;;
7557;SDS011;3820;51.098;13.716;2023-04-15T14:10:52;4.50;;;3.45;;
7557;SDS011;3820;51.098;13.716;2023-04-15T14:13:18;4.47;;;3.77;;
7557;SDS011;3820;51.098;13.716;2023-04-15T14:15:45;4.77;;;3.50;;
7557;SDS011;3820;51.098;13.716;2023-04-15T14:18:12;5.40;;;3.40;;
7557;SDS011;3820;51.098;13.716;2023-04-15T14:20:38;4.80;;;3.92;;
7557;SDS011;3820;51.098;13.716;2023-04-15T14:23:05;3.43;;;3.13;;
7557;SDS011;3820;51.098;13.716;2023-04-15T14:25:32;4.80;;;3.50;;
7557;SDS011;3820;51.098;13.716;2023-04-15T14:28:00;4.38;;;3.50;;
7557;SDS011;3820;51.098;13.716;2023-04-15T14:30:27;4.70;;;3.90;;
7557;SDS011;3820;51.098;13.716;2023-04-15T14:32:53;4.40;;;4.00;;
7557;SDS011;3820;51.098;13.716;2023-04-15T14:35:20;4.10;;;3.73;;
7557;SDS011;3820;51.098;13.716;2023-04-15T14:37:47;4.38;;;3.97;;
7557;SDS011;3820;51.098;13.716;2023-04-15T14:40:13;4.50;;;3.70;;
7557;SDS011;3820;51.098;13.716;2023-04-15T14:42:40;5.15;;;4.60;;
7557;SDS011;3820;51.098;13.716;2023-04-15T14:45:06;4.63;;;4.20;;
7557;SDS011;3820;51.098;13.716;2023-04-15T14:47:34;4.57;;;4.05;;
7557;SDS011;3820;51.098;13.716;2023-04-15T14:50:02;4.97;;;3.60;;
7557;SDS011;3820;51.098;13.716;2023-04-15T14:52:32;4.70;;;3.55;;
7557;SDS011;3820;51.098;13.716;2023-04-15T14:55:04;5.50;;;3.95;;
7557;SDS011;3820;51.098;13.716;2023-04-15T14:57:32;4.15;;;3.72;;
7557;SDS011;3820;51.098;13.716;2023-04-15T14:59:58;4.40;;;4.00;;
7557;SDS011;3820;51.098;13.716;2023-04-15T15:02:25;5.75;;;3.88;;
7557;SDS011;3820;51.098;13.716;2023-04-15T15:05:04;5.80;;;3.90;;
7557;SDS011;3820;51.098;13.716;2023-04-15T15:07:31;4.82;;;4.13;;
7557;SDS011;3820;51.098;13.716;2023-04-15T15:09:58;6.25;;;3.90;;
7557;SDS011;3820;51.098;13.716;2023-04-15T15:12:24;5.13;;;4.03;;
7557;SDS011;3820;51.098;13.716;2023-04-15T15:14:51;4.90;;;3.90;;
7557;SDS011;3820;51.098;13.716;2023-04-15T15:17:17;5.63;;;3.80;;
7557;SDS011;3820;51.098;13.716;2023-04-15T15:19:44;5.68;;;3.85;;